createdAt,value
2019-02-17T00:01:19.958Z,12.85
2019-02-17T00:03:47.366Z,12.88
2019-02-17T00:06:14.769Z,11.78
2019-02-17T00:08:42.115Z,12.57
2019-02-17T00:11:09.483Z,13.37
2019-02-17T00:13:36.841Z,12.93
2019-02-17T00:16:04.209Z,13.30
2019-02-17T00:18:31.573Z,13.60
2019-02-17T00:20:58.944Z,14.35
2019-02-17T00:23:26.321Z,12.73
2019-02-17T00:25:53.728Z,13.65
2019-02-17T00:28:21.070Z,13.43
2019-02-17T00:30:48.469Z,13.03
2019-02-17T00:33:15.821Z,12.82
2019-02-17T00:35:43.193Z,13.05
2019-02-17T00:38:10.556Z,12.45
2019-02-17T00:40:37.857Z,13.22
2019-02-17T00:43:05.225Z,13.72
2019-02-17T00:45:32.573Z,13.93
2019-02-17T00:47:59.950Z,13.13
2019-02-17T00:50:27.357Z,13.20
2019-02-17T00:52:54.659Z,12.65
2019-02-17T00:55:22.021Z,12.78
2019-02-17T00:57:49.387Z,14.07
2019-02-17T01:00:16.825Z,13.62
2019-02-17T01:02:44.201Z,13.60
2019-02-17T01:05:11.558Z,13.35
2019-02-17T01:07:38.917Z,13.35
2019-02-17T01:10:06.403Z,13.30
2019-02-17T01:12:33.758Z,13.30
2019-02-17T01:15:01.141Z,14.10
2019-02-17T01:17:28.709Z,13.68
2019-02-17T01:19:56.139Z,13.10
2019-02-17T01:22:23.557Z,13.13
2019-02-17T01:24:51.045Z,13.68
2019-02-17T01:27:18.421Z,13.45
2019-02-17T01:29:45.784Z,13.25
2019-02-17T01:32:13.163Z,13.30
2019-02-17T01:34:40.616Z,12.90
2019-02-17T01:37:07.989Z,14.10
2019-02-17T01:39:35.339Z,13.38
2019-02-17T01:42:02.692Z,14.28
2019-02-17T01:44:30.144Z,13.80
2019-02-17T01:46:57.526Z,14.15
2019-02-17T01:49:24.886Z,14.83
2019-02-17T01:51:52.589Z,14.65
2019-02-17T01:54:19.941Z,13.50
2019-02-17T01:56:47.318Z,15.03
2019-02-17T01:59:14.726Z,14.03
2019-02-17T02:01:42.197Z,13.62
2019-02-17T02:04:09.637Z,14.35
2019-02-17T02:06:37.010Z,14.28
2019-02-17T02:09:08.088Z,15.05
2019-02-17T02:11:35.416Z,13.93
2019-02-17T02:14:03.120Z,14.63
2019-02-17T02:16:30.477Z,14.63
2019-02-17T02:18:57.751Z,14.25
2019-02-17T02:21:25.154Z,13.15
2019-02-17T02:23:52.538Z,14.47
2019-02-17T02:26:19.921Z,13.70
2019-02-17T02:28:47.276Z,15.32
2019-02-17T02:31:14.730Z,14.93
2019-02-17T02:33:42.089Z,14.45
2019-02-17T02:36:09.397Z,14.30
2019-02-17T02:38:36.653Z,14.47
2019-02-17T02:41:03.977Z,14.03
2019-02-17T02:43:31.373Z,14.35
2019-02-17T02:45:58.703Z,15.15
2019-02-17T02:48:26.048Z,14.30
2019-02-17T02:50:53.476Z,14.55
2019-02-17T02:53:20.848Z,14.47
2019-02-17T02:55:48.242Z,15.18
2019-02-17T02:58:15.583Z,15.20
2019-02-17T03:00:42.943Z,15.08
2019-02-17T03:03:10.325Z,14.25
2019-02-17T03:05:42.451Z,15.32
2019-02-17T03:08:09.862Z,16.50
2019-02-17T03:10:37.204Z,15.18
2019-02-17T03:13:04.594Z,15.15
2019-02-17T03:15:32.033Z,15.18
2019-02-17T03:17:59.387Z,14.98
2019-02-17T03:20:26.771Z,14.87
2019-02-17T03:22:54.155Z,16.55
2019-02-17T03:25:21.508Z,16.07
2019-02-17T03:27:48.801Z,16.27
2019-02-17T03:30:16.153Z,16.00
2019-02-17T03:32:43.490Z,16.02
2019-02-17T03:35:10.740Z,15.23
2019-02-17T03:37:38.113Z,15.93
2019-02-17T03:40:06.354Z,15.15
2019-02-17T03:42:33.760Z,15.90
2019-02-17T03:45:01.113Z,15.75
2019-02-17T03:47:28.465Z,16.50
2019-02-17T03:49:55.812Z,16.40
2019-02-17T03:52:23.173Z,16.52
2019-02-17T03:54:50.446Z,16.85
2019-02-17T03:57:17.814Z,16.42
2019-02-17T03:59:45.100Z,17.15
2019-02-17T04:02:12.454Z,15.65
2019-02-17T04:04:39.793Z,16.55
2019-02-17T04:07:07.257Z,16.40
2019-02-17T04:09:34.814Z,16.25
2019-02-17T04:12:02.171Z,16.70
2019-02-17T04:14:29.524Z,15.88
2019-02-17T04:16:56.913Z,16.82
2019-02-17T04:19:24.338Z,16.73
2019-02-17T04:21:51.622Z,16.85
2019-02-17T04:24:19.137Z,16.45
2019-02-17T04:26:46.499Z,16.30
2019-02-17T04:29:13.858Z,16.37
2019-02-17T04:31:41.246Z,16.30
2019-02-17T04:34:08.666Z,16.73
2019-02-17T04:36:35.902Z,15.43
2019-02-17T04:39:04.611Z,17.02
2019-02-17T04:41:31.984Z,16.55
2019-02-17T04:43:59.327Z,16.10
2019-02-17T04:46:26.699Z,16.65
2019-02-17T04:48:54.077Z,17.82
2019-02-17T04:51:21.437Z,16.65
2019-02-17T04:53:48.790Z,18.17
2019-02-17T04:56:16.176Z,17.15
2019-02-17T04:58:43.670Z,16.97
2019-02-17T05:01:10.999Z,17.65
2019-02-17T05:03:38.359Z,17.50
2019-02-17T05:06:05.703Z,17.65
2019-02-17T05:08:33.067Z,17.52
2019-02-17T05:11:00.342Z,16.93
2019-02-17T05:13:27.699Z,16.57
2019-02-17T05:15:55.050Z,17.35
2019-02-17T05:18:22.404Z,17.27
2019-02-17T05:20:49.672Z,17.27
2019-02-17T05:23:17.066Z,17.75
2019-02-17T05:25:44.433Z,18.07
2019-02-17T05:28:11.777Z,16.77
2019-02-17T05:30:51.460Z,17.42
2019-02-17T05:33:08.493Z,17.25
2019-02-17T05:35:35.832Z,18.25
2019-02-17T05:38:03.193Z,17.45
2019-02-17T05:40:30.582Z,17.80
2019-02-17T05:42:57.962Z,17.92
2019-02-17T05:45:25.319Z,18.17
2019-02-17T05:47:52.680Z,17.27
2019-02-17T05:50:20.032Z,17.67
2019-02-17T05:52:47.405Z,18.17
2019-02-17T05:55:14.756Z,18.98
2019-02-17T05:57:42.184Z,17.60
2019-02-17T06:00:10.310Z,17.52
2019-02-17T06:02:37.650Z,18.60
2019-02-17T06:05:05.406Z,17.87
2019-02-17T06:07:32.750Z,18.12
2019-02-17T06:10:00.113Z,17.95
2019-02-17T06:12:27.464Z,17.92
2019-02-17T06:14:54.819Z,19.20
2019-02-17T06:17:22.289Z,17.77
2019-02-17T06:19:50.434Z,17.87
2019-02-17T06:22:17.789Z,17.95
2019-02-17T06:24:45.148Z,18.02
2019-02-17T06:27:12.506Z,19.12
2019-02-17T06:29:39.898Z,18.65
2019-02-17T06:32:07.245Z,18.62
2019-02-17T06:34:34.681Z,19.37
2019-02-17T06:37:02.510Z,18.77
2019-02-17T06:39:29.924Z,18.67
2019-02-17T06:41:57.293Z,19.32
2019-02-17T06:44:24.702Z,19.23
2019-02-17T06:46:55.625Z,20.27
2019-02-17T06:49:23.073Z,19.67
2019-02-17T06:51:50.471Z,19.23
2019-02-17T06:54:17.841Z,19.50
2019-02-17T06:56:54.383Z,18.70
2019-02-17T06:59:21.753Z,19.40
2019-02-17T07:01:49.091Z,19.02
2019-02-17T07:04:16.702Z,20.50
2019-02-17T07:06:54.953Z,21.52
2019-02-17T07:09:22.333Z,20.30
2019-02-17T07:11:49.778Z,20.60
2019-02-17T07:14:18.410Z,19.23
2019-02-17T07:16:45.739Z,19.85
2019-02-17T07:19:13.112Z,19.17
2019-02-17T07:21:40.648Z,19.65
2019-02-17T07:24:08.077Z,19.25
2019-02-17T07:26:35.449Z,19.25
2019-02-17T07:29:02.872Z,19.55
2019-02-17T07:31:34.904Z,17.98
2019-02-17T07:33:59.495Z,18.48
2019-02-17T07:36:26.826Z,18.25
2019-02-17T07:38:54.197Z,17.67
2019-02-17T07:41:21.549Z,19.37
2019-02-17T07:43:48.903Z,19.75
2019-02-17T07:46:16.243Z,19.92
2019-02-17T07:48:43.538Z,17.87
2019-02-17T07:51:10.881Z,18.80
2019-02-17T07:53:38.233Z,18.10
2019-02-17T07:56:05.755Z,17.77
2019-02-17T07:58:33.243Z,18.23
2019-02-17T08:01:00.591Z,17.32
2019-02-17T08:03:28.002Z,17.50
2019-02-17T08:05:55.421Z,17.65
2019-02-17T08:08:22.987Z,17.87
2019-02-17T08:10:50.294Z,17.00
2019-02-17T08:13:17.776Z,16.50
2019-02-17T08:15:45.466Z,17.60
2019-02-17T08:18:12.848Z,17.60
2019-02-17T08:20:40.282Z,17.02
2019-02-17T08:23:07.645Z,16.87
2019-02-17T08:25:35.033Z,17.03
2019-02-17T08:28:02.520Z,17.00
2019-02-17T08:30:29.856Z,14.93
2019-02-17T08:32:57.238Z,16.57
2019-02-17T08:35:24.490Z,16.20
2019-02-17T08:37:51.924Z,16.10
2019-02-17T08:40:19.120Z,16.83
2019-02-17T08:42:48.964Z,18.53
2019-02-17T08:45:16.332Z,17.03
2019-02-17T08:47:43.715Z,17.10
2019-02-17T08:50:10.964Z,16.90
2019-02-17T08:52:38.330Z,15.73
2019-02-17T08:55:06.964Z,15.67
2019-02-17T08:57:34.329Z,13.53
2019-02-17T09:00:01.767Z,16.67
2019-02-17T09:02:29.129Z,15.97
2019-02-17T09:04:56.408Z,14.50
2019-02-17T09:07:23.737Z,15.33
2019-02-17T09:09:51.120Z,16.97
2019-02-17T09:12:18.473Z,15.80
2019-02-17T09:14:45.841Z,15.40
2019-02-17T09:17:13.155Z,13.23
2019-02-17T09:19:40.503Z,13.97
2019-02-17T09:22:07.935Z,13.93
2019-02-17T09:24:35.343Z,15.10
2019-02-17T09:27:02.702Z,16.47
2019-02-17T09:29:30.025Z,16.10
2019-02-17T09:31:59.303Z,15.03
2019-02-17T09:34:29.173Z,15.47
2019-02-17T09:36:56.507Z,16.23
2019-02-17T09:39:23.883Z,15.53
2019-02-17T09:41:51.238Z,14.30
2019-02-17T09:44:18.601Z,15.07
2019-02-17T09:46:45.981Z,15.43
2019-02-17T09:49:13.289Z,14.07
2019-02-17T09:51:40.529Z,14.40
2019-02-17T09:54:07.879Z,14.57
2019-02-17T09:56:35.242Z,14.97
2019-02-17T09:59:02.572Z,12.93
2019-02-17T10:01:29.907Z,13.13
2019-02-17T10:03:57.279Z,13.53
2019-02-17T10:06:24.641Z,13.10
2019-02-17T10:08:51.995Z,14.23
2019-02-17T10:11:19.432Z,13.23
2019-02-17T10:13:46.675Z,12.83
2019-02-17T10:16:14.029Z,13.10
2019-02-17T10:18:41.369Z,13.73
2019-02-17T10:21:08.721Z,14.13
2019-02-17T10:23:36.053Z,14.07
2019-02-17T10:26:03.423Z,14.17
2019-02-17T10:28:30.801Z,12.97
2019-02-17T10:30:58.145Z,13.10
2019-02-17T10:33:25.503Z,12.63
2019-02-17T10:35:52.887Z,12.90
2019-02-17T10:38:20.203Z,13.73
2019-02-17T10:40:47.549Z,13.50
2019-02-17T10:43:14.913Z,13.20
2019-02-17T10:45:42.246Z,14.60
2019-02-17T10:48:09.551Z,13.50
2019-02-17T10:50:36.954Z,13.30
2019-02-17T10:53:04.295Z,13.40
2019-02-17T10:55:31.617Z,13.27
2019-02-17T10:57:58.971Z,12.47
2019-02-17T11:00:26.911Z,12.70
2019-02-17T11:02:54.288Z,12.97
2019-02-17T11:05:21.641Z,11.47
2019-02-17T11:07:48.970Z,12.87
2019-02-17T11:10:16.316Z,12.13
2019-02-17T11:12:43.647Z,12.77
2019-02-17T11:15:13.029Z,12.50
2019-02-17T11:17:40.505Z,12.03
2019-02-17T11:20:07.893Z,12.03
2019-02-17T11:22:35.549Z,11.97
2019-02-17T11:25:03.081Z,12.47
2019-02-17T11:27:30.455Z,12.07
2019-02-17T11:29:57.826Z,11.57
2019-02-17T11:32:25.078Z,11.97
2019-02-17T11:34:52.453Z,12.30
2019-02-17T11:37:19.702Z,12.60
2019-02-17T11:39:47.028Z,12.37
2019-02-17T11:42:14.356Z,11.80
2019-02-17T11:44:41.684Z,11.27
2019-02-17T11:47:09.027Z,10.90
2019-02-17T11:49:36.389Z,12.20
2019-02-17T11:52:03.735Z,10.40
2019-02-17T11:54:31.198Z,10.57
2019-02-17T11:56:58.534Z,10.20
2019-02-17T11:59:25.880Z,10.80
2019-02-17T12:01:53.192Z,10.80
2019-02-17T12:04:20.568Z,11.27
2019-02-17T12:06:47.890Z,11.60
2019-02-17T12:09:15.257Z,10.83
2019-02-17T12:11:42.609Z,10.20
2019-02-17T12:14:09.988Z,10.60
2019-02-17T12:16:37.439Z,8.60
2019-02-17T12:19:04.948Z,10.50
2019-02-17T12:21:42.906Z,10.87
2019-02-17T12:24:15.128Z,9.70
2019-02-17T12:27:05.036Z,10.73
2019-02-17T12:29:40.309Z,10.23
2019-02-17T12:32:07.656Z,10.20
2019-02-17T12:34:34.996Z,10.90
2019-02-17T12:37:02.379Z,9.87
2019-02-17T12:39:29.713Z,10.57
2019-02-17T12:41:57.065Z,9.77
2019-02-17T12:44:24.429Z,10.63
2019-02-17T12:46:51.763Z,9.40
2019-02-17T12:49:19.100Z,10.40
2019-02-17T12:51:46.474Z,9.53
2019-02-17T12:54:13.781Z,10.03
2019-02-17T12:56:41.149Z,9.80
2019-02-17T12:59:08.489Z,10.07
2019-02-17T13:01:35.764Z,10.00
2019-02-17T13:04:03.183Z,9.87
2019-02-17T13:06:30.521Z,9.97
2019-02-17T13:08:57.876Z,11.00
2019-02-17T13:11:25.216Z,10.03
2019-02-17T13:13:52.575Z,10.17
2019-02-17T13:16:19.931Z,9.53
2019-02-17T13:18:47.313Z,9.53
2019-02-17T13:21:14.577Z,9.23
2019-02-17T13:23:41.939Z,9.57
2019-02-17T13:26:09.282Z,9.37
2019-02-17T13:28:36.693Z,9.77
2019-02-17T13:31:04.106Z,9.10
2019-02-17T13:33:38.864Z,9.87
2019-02-17T13:36:00.762Z,9.80
2019-02-17T13:38:28.096Z,9.60
2019-02-17T13:40:55.427Z,9.60
2019-02-17T13:43:23.097Z,9.10
2019-02-17T13:45:50.446Z,9.10
2019-02-17T13:48:17.801Z,8.30
2019-02-17T13:50:45.141Z,8.23
2019-02-17T13:53:12.512Z,8.57
2019-02-17T13:55:39.873Z,8.50
2019-02-17T13:58:07.353Z,7.73
2019-02-17T14:00:34.713Z,9.00
2019-02-17T14:03:04.016Z,9.17
2019-02-17T14:05:31.363Z,6.77
2019-02-17T14:07:58.617Z,8.47
2019-02-17T14:10:25.977Z,8.60
2019-02-17T14:12:53.329Z,7.50
2019-02-17T14:15:20.705Z,8.17
2019-02-17T14:17:48.029Z,6.33
2019-02-17T14:20:15.554Z,8.73
2019-02-17T14:22:42.864Z,7.60
2019-02-17T14:25:11.220Z,7.10
2019-02-17T14:27:39.274Z,7.87
2019-02-17T14:30:08.247Z,8.00
2019-02-17T14:32:35.577Z,6.33
2019-02-17T14:35:03.277Z,7.17
2019-02-17T14:37:30.616Z,6.77
2019-02-17T14:39:58.056Z,7.47
2019-02-17T14:42:25.462Z,6.93
2019-02-17T14:44:52.809Z,6.83
2019-02-17T14:47:20.157Z,7.17
2019-02-17T14:49:47.413Z,7.30
2019-02-17T14:52:14.779Z,7.00
2019-02-17T14:54:42.197Z,7.20
2019-02-17T14:57:09.709Z,7.03
2019-02-17T14:59:37.053Z,7.97
2019-02-17T15:02:04.325Z,7.03
2019-02-17T15:04:31.686Z,7.77
2019-02-17T15:06:59.353Z,7.70
2019-02-17T15:09:26.723Z,7.70
2019-02-17T15:11:54.155Z,7.37
2019-02-17T15:14:21.513Z,7.47
2019-02-17T15:16:48.951Z,7.30
2019-02-17T15:19:16.317Z,7.67
2019-02-17T15:21:43.721Z,7.70
2019-02-17T15:24:11.069Z,7.73
2019-02-17T15:26:38.402Z,8.00
2019-02-17T15:29:05.773Z,6.93
2019-02-17T15:31:33.114Z,7.50
2019-02-17T15:34:00.860Z,7.33
2019-02-17T15:36:28.100Z,7.80
2019-02-17T15:38:55.448Z,7.23
2019-02-17T15:41:22.799Z,7.07
2019-02-17T15:43:50.159Z,6.50
2019-02-17T15:46:17.596Z,6.47
2019-02-17T15:48:44.975Z,7.37
2019-02-17T15:51:12.451Z,7.63
2019-02-17T15:53:39.786Z,6.20
2019-02-17T15:56:07.139Z,8.03
2019-02-17T15:58:34.526Z,6.80
2019-02-17T16:01:01.919Z,6.93
2019-02-17T16:03:29.283Z,7.13
2019-02-17T16:05:56.640Z,6.33
2019-02-17T16:08:24.003Z,6.63
2019-02-17T16:10:51.365Z,6.67
2019-02-17T16:13:18.778Z,6.37
2019-02-17T16:15:46.221Z,7.17
2019-02-17T16:18:13.613Z,6.33
2019-02-17T16:20:40.953Z,7.97
2019-02-17T16:23:11.101Z,8.17
2019-02-17T16:25:38.450Z,8.30
2019-02-17T16:28:06.676Z,7.20
2019-02-17T16:30:34.053Z,6.40
2019-02-17T16:33:01.403Z,5.97
2019-02-17T16:35:28.862Z,6.87
2019-02-17T16:37:56.264Z,6.87
2019-02-17T16:40:23.712Z,6.23
2019-02-17T16:42:51.254Z,6.80
2019-02-17T16:45:19.064Z,7.30
2019-02-17T16:47:46.506Z,6.70
2019-02-17T16:50:15.876Z,6.87
2019-02-17T16:52:43.238Z,6.37
2019-02-17T16:55:10.634Z,5.97
2019-02-17T16:57:38.024Z,6.27
2019-02-17T17:00:06.584Z,6.83
2019-02-17T17:02:33.940Z,6.40
2019-02-17T17:05:01.333Z,6.67
2019-02-17T17:07:28.731Z,6.50
2019-02-17T17:09:56.044Z,6.00
2019-02-17T17:12:24.836Z,7.37
2019-02-17T17:14:52.384Z,6.10
2019-02-17T17:17:19.773Z,6.30
2019-02-17T17:19:47.105Z,5.60
2019-02-17T17:22:14.489Z,5.40
2019-02-17T17:24:41.881Z,6.50
2019-02-17T17:27:09.269Z,6.40
2019-02-17T17:29:36.715Z,5.80
2019-02-17T17:32:04.114Z,5.40
2019-02-17T17:34:31.476Z,6.70
2019-02-17T17:36:58.852Z,6.07
2019-02-17T17:39:26.196Z,5.80
2019-02-17T17:41:53.462Z,6.10
2019-02-17T17:44:20.862Z,6.33
2019-02-17T17:46:48.253Z,6.43
2019-02-17T17:49:19.203Z,5.60
2019-02-17T17:51:44.875Z,5.70
2019-02-17T17:54:12.219Z,5.97
2019-02-17T17:56:39.763Z,6.37
2019-02-17T17:59:07.155Z,5.80
2019-02-17T18:01:34.493Z,6.27
2019-02-17T18:04:01.869Z,6.57
2019-02-17T18:06:29.139Z,6.73
2019-02-17T18:08:56.653Z,6.27
2019-02-17T18:11:23.974Z,5.87
2019-02-17T18:13:51.404Z,5.97
2019-02-17T18:16:18.936Z,8.03
2019-02-17T18:18:46.414Z,6.00
2019-02-17T18:21:13.686Z,6.13
2019-02-17T18:23:41.093Z,6.17
2019-02-17T18:26:08.551Z,5.90
2019-02-17T18:28:35.989Z,6.40
2019-02-17T18:31:03.348Z,6.73
2019-02-17T18:33:30.711Z,6.03
2019-02-17T18:35:58.229Z,7.30
2019-02-17T18:38:25.589Z,6.60
2019-02-17T18:40:53.059Z,6.47
2019-02-17T18:43:20.422Z,6.30
2019-02-17T18:45:48.029Z,6.80
2019-02-17T18:48:15.462Z,6.43
2019-02-17T18:50:42.794Z,6.50
2019-02-17T18:53:10.165Z,7.47
2019-02-17T18:55:37.557Z,7.27
2019-02-17T18:58:04.987Z,6.90
2019-02-17T19:00:32.367Z,6.83
2019-02-17T19:02:59.788Z,6.70
2019-02-17T19:05:31.941Z,6.30
2019-02-17T19:07:56.431Z,6.93
2019-02-17T19:10:23.822Z,6.93
2019-02-17T19:12:51.189Z,7.17
2019-02-17T19:15:18.614Z,7.53
2019-02-17T19:17:46.097Z,7.57
2019-02-17T19:20:15.813Z,6.87
2019-02-17T19:22:43.247Z,6.93
2019-02-17T19:25:10.699Z,7.20
2019-02-17T19:27:40.550Z,6.90
2019-02-17T19:30:08.826Z,7.47
2019-02-17T19:32:36.221Z,13.55
2019-02-17T19:35:04.419Z,10.07
2019-02-17T19:37:31.807Z,9.20
2019-02-17T19:39:59.254Z,8.40
2019-02-17T19:42:26.668Z,7.70
2019-02-17T19:44:54.027Z,7.67
2019-02-17T19:47:21.410Z,7.23
2019-02-17T19:49:48.951Z,7.87
2019-02-17T19:52:16.442Z,9.13
2019-02-17T19:54:43.707Z,8.47
2019-02-17T19:57:11.082Z,8.57
2019-02-17T19:59:38.449Z,7.90
2019-02-17T20:02:05.812Z,7.37
2019-02-17T20:04:37.332Z,7.90
2019-02-17T20:07:05.211Z,7.90
2019-02-17T20:09:32.556Z,7.97
2019-02-17T20:11:59.960Z,7.60
2019-02-17T20:14:27.312Z,7.50
2019-02-17T20:16:54.675Z,8.33
2019-02-17T20:19:22.034Z,8.07
2019-02-17T20:21:49.372Z,7.40
2019-02-17T20:24:16.715Z,8.30
2019-02-17T20:26:44.118Z,8.17
2019-02-17T20:29:11.992Z,7.40
2019-02-17T20:31:39.412Z,7.43
2019-02-17T20:34:06.792Z,6.80
2019-02-17T20:36:34.325Z,7.73
2019-02-17T20:39:01.686Z,7.90
2019-02-17T20:41:29.037Z,7.20
2019-02-17T20:43:56.412Z,8.00
2019-02-17T20:46:23.767Z,7.67
2019-02-17T20:48:52.499Z,7.83
2019-02-17T20:51:20.044Z,7.23
2019-02-17T20:53:47.420Z,7.40
2019-02-17T20:56:14.789Z,7.20
2019-02-17T20:58:42.147Z,7.70
2019-02-17T21:01:09.534Z,7.73
2019-02-17T21:03:36.893Z,8.10
2019-02-17T21:06:12.490Z,8.03
2019-02-17T21:08:33.404Z,7.93
2019-02-17T21:11:00.778Z,8.00
2019-02-17T21:13:28.155Z,9.20
2019-02-17T21:15:55.504Z,8.60
2019-02-17T21:18:22.851Z,7.17
2019-02-17T21:20:50.324Z,8.27
2019-02-17T21:23:17.656Z,8.17
2019-02-17T21:25:45.022Z,8.97
2019-02-17T21:28:12.453Z,8.23
2019-02-17T21:30:39.818Z,9.20
2019-02-17T21:33:07.299Z,9.87
2019-02-17T21:35:34.830Z,9.30
2019-02-17T21:38:02.243Z,9.73
2019-02-17T21:40:29.574Z,8.77
2019-02-17T21:42:56.836Z,11.37
2019-02-17T21:45:24.185Z,11.23
2019-02-17T21:47:51.560Z,11.47
2019-02-17T21:50:18.854Z,9.87
2019-02-17T21:52:46.504Z,8.97
2019-02-17T21:55:13.952Z,8.63
2019-02-17T21:57:41.274Z,9.27
2019-02-17T22:00:11.438Z,9.10
2019-02-17T22:02:38.814Z,9.87
2019-02-17T22:05:06.230Z,8.80
2019-02-17T22:07:35.121Z,9.00
2019-02-17T22:10:02.846Z,8.70
2019-02-17T22:12:30.294Z,9.07
2019-02-17T22:14:57.659Z,9.03
2019-02-17T22:17:25.018Z,8.90
2019-02-17T22:19:52.425Z,9.43
2019-02-17T22:22:19.770Z,9.90
2019-02-17T22:24:47.105Z,8.87
2019-02-17T22:27:14.489Z,10.33
2019-02-17T22:29:41.838Z,9.00
2019-02-17T22:32:09.175Z,9.67
2019-02-17T22:34:36.593Z,8.50
2019-02-17T22:37:03.932Z,8.60
2019-02-17T22:39:31.281Z,9.43
2019-02-17T22:41:58.551Z,9.10
2019-02-17T22:44:25.911Z,10.03
2019-02-17T22:46:53.255Z,9.07
2019-02-17T22:49:20.599Z,10.13
2019-02-17T22:51:47.956Z,9.20
2019-02-17T22:54:15.332Z,10.23
2019-02-17T22:56:42.560Z,9.67
2019-02-17T22:59:09.989Z,9.60
2019-02-17T23:01:37.308Z,10.30
2019-02-17T23:04:04.674Z,10.70
2019-02-17T23:06:32.017Z,9.17
2019-02-17T23:08:59.248Z,9.80
2019-02-17T23:11:26.609Z,9.77
2019-02-17T23:13:53.932Z,8.90
2019-02-17T23:16:21.294Z,9.97
2019-02-17T23:18:48.689Z,8.53
2019-02-17T23:21:16.070Z,9.13
2019-02-17T23:23:43.534Z,8.80
2019-02-17T23:26:10.888Z,9.63
2019-02-17T23:28:38.232Z,8.60
2019-02-17T23:31:05.584Z,9.77
2019-02-17T23:33:32.940Z,11.97
2019-02-17T23:36:00.285Z,14.60
2019-02-17T23:38:27.529Z,16.93
2019-02-17T23:40:54.900Z,32.35
2019-02-17T23:43:22.252Z,51.55
2019-02-17T23:45:49.648Z,33.27
2019-02-17T23:48:17.028Z,20.53
2019-02-17T23:50:44.418Z,12.47
2019-02-17T23:53:11.847Z,11.20
2019-02-17T23:55:39.183Z,9.57
2019-02-17T23:58:06.530Z,9.17
